< < Back
Terminal Aerodrome Forecast


Current Version              Previous Versions:   1  2  3  4  5  6  7  8  9  

Terminal Aerodrome Forecast

039
FTUS42 KJAX 301120
TAFJAX
TAF
KJAX 301120Z 3012/0112 26005KT P6SM FEW030 SCT250
     FM301800 16008KT P6SM VCTS BKN040CB BKN250
      TEMPO 3020/3023 4SM TSRA BKN035CB
     FM010300 VRB03KT P6SM SCT100 BKN250=

Latest METAR

646
SAUS80 KWBC 302100 RRB
MTRJAX
METAR KJAX 302056Z 00000KT 10SM FEW035 FEW060 SCT150 OVC220 27/24 A2999
RMK AO2 RAE1958 TSE06 SLP157 P0000 60000 T02720244 50004


USA.gov is the U.S. government's official web portal to all federal, state and local government web resources and services.